sensor_id;sensor_type;location;lat;lon;timestamp;P1;P2;P0
73828;PMS7003;62176;48.450;-4.466;2022-08-19T00:01:29;6.25;6.25;4.50
73828;PMS7003;62176;48.450;-4.466;2022-08-19T00:03:58;10.75;8.00;6.75
73828;PMS7003;62176;48.450;-4.466;2022-08-19T00:06:26;8.25;6.75;4.75
73828;PMS7003;62176;48.450;-4.466;2022-08-19T00:08:52;8.50;6.75;4.25
73828;PMS7003;62176;48.450;-4.466;2022-08-19T00:11:18;8.00;7.25;6.00
73828;PMS7003;62176;48.450;-4.466;2022-08-19T00:13:43;8.50;7.00;4.25
73828;PMS7003;62176;48.450;-4.466;2022-08-19T00:16:11;12.00;11.00;6.25
73828;PMS7003;62176;48.450;-4.466;2022-08-19T00:18:36;8.50;6.50;4.25
73828;PMS7003;62176;48.450;-4.466;2022-08-19T00:21:02;8.75;8.25;6.75
73828;PMS7003;62176;48.450;-4.466;2022-08-19T00:23:28;9.75;7.25;5.75
73828;PMS7003;62176;48.450;-4.466;2022-08-19T00:25:54;8.50;8.50;4.75
73828;PMS7003;62176;48.450;-4.466;2022-08-19T00:28:19;12.50;7.50;4.50
73828;PMS7003;62176;48.450;-4.466;2022-08-19T00:30:45;7.75;7.75;5.50
73828;PMS7003;62176;48.450;-4.466;2022-08-19T00:33:11;11.25;9.00;5.25
73828;PMS7003;62176;48.450;-4.466;2022-08-19T00:35:36;11.00;8.50;5.50
73828;PMS7003;62176;48.450;-4.466;2022-08-19T00:38:03;11.00;8.00;4.75
73828;PMS7003;62176;48.450;-4.466;2022-08-19T00:40:30;8.25;7.50;6.25
73828;PMS7003;62176;48.450;-4.466;2022-08-19T00:42:56;10.00;6.50;5.25
73828;PMS7003;62176;48.450;-4.466;2022-08-19T00:45:22;6.50;6.50;5.75
73828;PMS7003;62176;48.450;-4.466;2022-08-19T00:47:50;8.25;7.00;5.50
73828;PMS7003;62176;48.450;-4.466;2022-08-19T00:50:16;12.25;8.25;4.50
73828;PMS7003;62176;48.450;-4.466;2022-08-19T00:52:46;2.75;2.75;1.00
73828;PMS7003;62176;48.450;-4.466;2022-08-19T00:55:16;7.25;7.25;4.00
73828;PMS7003;62176;48.450;-4.466;2022-08-19T00:57:51;9.75;9.75;6.25
73828;PMS7003;62176;48.450;-4.466;2022-08-19T01:00:19;13.50;8.25;4.75
73828;PMS7003;62176;48.450;-4.466;2022-08-19T01:02:46;8.75;6.75;4.50
73828;PMS7003;62176;48.450;-4.466;2022-08-19T01:05:13;8.75;6.25;3.75
73828;PMS7003;62176;48.450;-4.466;2022-08-19T01:07:43;7.75;6.00;4.75
73828;PMS7003;62176;48.450;-4.466;2022-08-19T01:10:11;7.25;7.00;4.00
73828;PMS7003;62176;48.450;-4.466;2022-08-19T01:12:39;12.25;10.00;6.00
73828;PMS7003;62176;48.450;-4.466;2022-08-19T01:15:05;9.50;7.25;4.00
73828;PMS7003;62176;48.450;-4.466;2022-08-19T01:17:34;10.50;9.00;5.25
73828;PMS7003;62176;48.450;-4.466;2022-08-19T01:20:01;12.00;7.50;5.75
73828;PMS7003;62176;48.450;-4.466;2022-08-19T01:22:34;9.50;9.50;6.50
73828;PMS7003;62176;48.450;-4.466;2022-08-19T01:25:07;13.25;8.75;7.00
73828;PMS7003;62176;48.450;-4.466;2022-08-19T01:27:39;11.25;10.00;7.00
73828;PMS7003;62176;48.450;-4.466;2022-08-19T01:30:08;11.25;10.75;7.00
73828;PMS7003;62176;48.450;-4.466;2022-08-19T01:32:34;10.00;8.00;4.50
73828;PMS7003;62176;48.450;-4.466;2022-08-19T01:35:01;7.75;5.50;4.00
73828;PMS7003;62176;48.450;-4.466;2022-08-19T01:37:27;12.25;8.50;6.25
73828;PMS7003;62176;48.450;-4.466;2022-08-19T01:39:53;8.50;8.50;5.25
73828;PMS7003;62176;48.450;-4.466;2022-08-19T01:42:19;9.50;8.75;5.50
73828;PMS7003;62176;48.450;-4.466;2022-08-19T01:44:44;10.75;8.50;5.50
73828;PMS7003;62176;48.450;-4.466;2022-08-19T01:47:10;12.50;8.75;6.00
73828;PMS7003;62176;48.450;-4.466;2022-08-19T01:49:35;10.25;7.50;4.25
73828;PMS7003;62176;48.450;-4.466;2022-08-19T01:52:02;10.75;9.50;6.50
73828;PMS7003;62176;48.450;-4.466;2022-08-19T01:54:28;14.25;8.75;6.00
73828;PMS7003;62176;48.450;-4.466;2022-08-19T01:56:57;12.00;10.50;7.75
73828;PMS7003;62176;48.450;-4.466;2022-08-19T01:59:36;10.50;8.50;5.25
73828;PMS7003;62176;48.450;-4.466;2022-08-19T02:02:02;11.25;8.75;5.25
73828;PMS7003;62176;48.450;-4.466;2022-08-19T02:04:30;12.75;9.50;5.25
73828;PMS7003;62176;48.450;-4.466;2022-08-19T02:06:57;12.00;10.00;6.25
73828;PMS7003;62176;48.450;-4.466;2022-08-19T02:09:22;10.00;8.00;6.25
73828;PMS7003;62176;48.450;-4.466;2022-08-19T02:11:48;10.75;8.75;6.00
73828;PMS7003;62176;48.450;-4.466;2022-08-19T02:14:13;8.25;7.25;5.00
73828;PMS7003;62176;48.450;-4.466;2022-08-19T02:16:39;13.50;9.75;6.00
73828;PMS7003;62176;48.450;-4.466;2022-08-19T02:19:05;11.00;8.00;5.00
73828;PMS7003;62176;48.450;-4.466;2022-08-19T02:21:31;8.50;8.00;6.00
73828;PMS7003;62176;48.450;-4.466;2022-08-19T02:23:57;11.50;7.75;4.50
73828;PMS7003;62176;48.450;-4.466;2022-08-19T02:26:22;8.25;8.00;6.00
73828;PMS7003;62176;48.450;-4.466;2022-08-19T02:28:48;10.25;7.75;5.75
73828;PMS7003;62176;48.450;-4.466;2022-08-19T02:31:16;9.50;6.50;5.00
73828;PMS7003;62176;48.450;-4.466;2022-08-19T02:33:43;9.75;6.00;3.25
73828;PMS7003;62176;48.450;-4.466;2022-08-19T02:36:10;7.50;7.25;4.00
73828;PMS7003;62176;48.450;-4.466;2022-08-19T02:38:36;6.00;5.00;4.00
73828;PMS7003;62176;48.450;-4.466;2022-08-19T02:41:04;11.25;8.00;4.00
73828;PMS7003;62176;48.450;-4.466;2022-08-19T02:43:33;5.00;4.00;3.25
73828;PMS7003;62176;48.450;-4.466;2022-08-19T02:46:02;6.50;4.25;2.75
73828;PMS7003;62176;48.450;-4.466;2022-08-19T02:48:50;7.00;5.00;2.75
73828;PMS7003;62176;48.450;-4.466;2022-08-19T02:51:18;7.00;6.00;3.00
73828;PMS7003;62176;48.450;-4.466;2022-08-19T02:53:45;4.75;4.75;3.00
73828;PMS7003;62176;48.450;-4.466;2022-08-19T02:56:11;7.00;4.00;2.00
73828;PMS7003;62176;48.450;-4.466;2022-08-19T02:58:37;5.25;4.00;3.00
73828;PMS7003;62176;48.450;-4.466;2022-08-19T03:01:03;4.25;4.25;3.00
73828;PMS7003;62176;48.450;-4.466;2022-08-19T03:03:28;6.75;5.00;4.00
73828;PMS7003;62176;48.450;-4.466;2022-08-19T03:06:08;10.00;7.00;3.75
73828;PMS7003;62176;48.450;-4.466;2022-08-19T03:08:36;7.50;4.75;3.50
73828;PMS7003;62176;48.450;-4.466;2022-08-19T03:11:02;5.25;4.00;3.00
73828;PMS7003;62176;48.450;-4.466;2022-08-19T03:13:28;6.50;3.50;2.75
73828;PMS7003;62176;48.450;-4.466;2022-08-19T03:15:54;4.75;4.75;2.75
73828;PMS7003;62176;48.450;-4.466;2022-08-19T03:18:19;6.50;5.00;3.00
73828;PMS7003;62176;48.450;-4.466;2022-08-19T03:20:46;8.25;4.75;3.00
73828;PMS7003;62176;48.450;-4.466;2022-08-19T03:23:14;8.25;3.00;2.00
73828;PMS7003;62176;48.450;-4.466;2022-08-19T03:25:42;4.75;3.00;2.25
73828;PMS7003;62176;48.450;-4.466;2022-08-19T03:28:12;4.75;4.00;2.00
73828;PMS7003;62176;48.450;-4.466;2022-08-19T03:30:41;4.25;4.25;3.00
73828;PMS7003;62176;48.450;-4.466;2022-08-19T03:33:09;8.00;3.50;3.00
73828;PMS7003;62176;48.450;-4.466;2022-08-19T03:35:36;6.00;6.00;4.00
73828;PMS7003;62176;48.450;-4.466;2022-08-19T03:38:02;5.25;4.00;2.00
73828;PMS7003;62176;48.450;-4.466;2022-08-19T03:40:28;6.00;4.25;3.00
73828;PMS7003;62176;48.450;-4.466;2022-08-19T03:42:55;1.75;1.75;1.00
73828;PMS7003;62176;48.450;-4.466;2022-08-19T03:45:21;7.50;6.25;2.75
73828;PMS7003;62176;48.450;-4.466;2022-08-19T03:47:47;3.25;3.25;2.50
73828;PMS7003;62176;48.450;-4.466;2022-08-19T03:50:12;7.00;5.75;3.00
73828;PMS7003;62176;48.450;-4.466;2022-08-19T03:52:38;5.25;4.00;2.25
73828;PMS7003;62176;48.450;-4.466;2022-08-19T03:55:04;5.25;3.50;2.00
73828;PMS7003;62176;48.450;-4.466;2022-08-19T03:57:30;5.25;4.25;3.00
73828;PMS7003;62176;48.450;-4.466;2022-08-19T03:59:57;3.75;3.75;2.00
73828;PMS7003;62176;48.450;-4.466;2022-08-19T04:02:23;3.75;2.50;2.00
73828;PMS7003;62176;48.450;-4.466;2022-08-19T04:04:48;6.00;4.00;4.00
73828;PMS7003;62176;48.450;-4.466;2022-08-19T04:07:14;9.00;4.25;3.00
73828;PMS7003;62176;48.450;-4.466;2022-08-19T04:09:41;5.25;4.25;3.00
73828;PMS7003;62176;48.450;-4.466;2022-08-19T04:12:06;6.00;4.25;2.75
73828;PMS7003;62176;48.450;-4.466;2022-08-19T04:14:32;4.00;4.00;2.00
73828;PMS7003;62176;48.450;-4.466;2022-08-19T04:16:59;8.75;6.00;4.00
73828;PMS7003;62176;48.450;-4.466;2022-08-19T04:19:26;5.75;3.25;2.00
73828;PMS7003;62176;48.450;-4.466;2022-08-19T04:21:52;5.75;4.00;3.25
73828;PMS7003;62176;48.450;-4.466;2022-08-19T04:24:19;3.75;3.75;2.50
73828;PMS7003;62176;48.450;-4.466;2022-08-19T04:26:45;4.75;4.75;2.25
73828;PMS7003;62176;48.450;-4.466;2022-08-19T04:29:22;3.25;3.25;2.50
73828;PMS7003;62176;48.450;-4.466;2022-08-19T04:31:50;5.00;2.75;2.25
73828;PMS7003;62176;48.450;-4.466;2022-08-19T04:34:18;5.75;4.00;3.00
73828;PMS7003;62176;48.450;-4.466;2022-08-19T04:36:47;6.25;3.00;2.50
73828;PMS7003;62176;48.450;-4.466;2022-08-19T04:39:16;7.50;4.00;3.00
73828;PMS7003;62176;48.450;-4.466;2022-08-19T04:41:44;8.25;3.00;2.00
73828;PMS7003;62176;48.450;-4.466;2022-08-19T04:44:29;6.00;2.50;2.00
73828;PMS7003;62176;48.450;-4.466;2022-08-19T04:46:59;5.00;4.00;2.75
73828;PMS7003;62176;48.450;-4.466;2022-08-19T04:49:25;4.25;3.50;2.25
73828;PMS7003;62176;48.450;-4.466;2022-08-19T04:51:51;4.75;4.50;3.00
73828;PMS7003;62176;48.450;-4.466;2022-08-19T04:54:18;3.75;3.75;2.25
73828;PMS7003;62176;48.450;-4.466;2022-08-19T04:56:47;11.50;4.75;3.00
73828;PMS7003;62176;48.450;-4.466;2022-08-19T04:59:14;5.00;4.00;3.25
73828;PMS7003;62176;48.450;-4.466;2022-08-19T05:01:42;6.00;4.00;3.00
73828;PMS7003;62176;48.450;-4.466;2022-08-19T05:04:08;6.25;2.75;2.00
73828;PMS7003;62176;48.450;-4.466;2022-08-19T05:06:34;6.75;5.25;3.25
73828;PMS7003;62176;48.450;-4.466;2022-08-19T05:09:01;6.75;5.00;3.75
73828;PMS7003;62176;48.450;-4.466;2022-08-19T05:11:31;8.00;4.25;3.00
73828;PMS7003;62176;48.450;-4.466;2022-08-19T05:13:58;7.00;6.50;4.00
73828;PMS7003;62176;48.450;-4.466;2022-08-19T05:16:24;6.25;5.75;3.75
73828;PMS7003;62176;48.450;-4.466;2022-08-19T05:18:51;5.00;5.00;3.50
73828;PMS7003;62176;48.450;-4.466;2022-08-19T05:21:36;3.00;3.00;3.00
73828;PMS7003;62176;48.450;-4.466;2022-08-19T05:24:21;8.25;5.75;4.00
73828;PMS7003;62176;48.450;-4.466;2022-08-19T05:26:48;7.75;6.25;3.00
73828;PMS7003;62176;48.450;-4.466;2022-08-19T05:29:18;6.75;5.25;3.25
73828;PMS7003;62176;48.450;-4.466;2022-08-19T05:31:45;10.00;5.25;4.00
73828;PMS7003;62176;48.450;-4.466;2022-08-19T05:34:14;8.75;7.00;5.00
73828;PMS7003;62176;48.450;-4.466;2022-08-19T05:36:40;4.50;4.00;2.00
73828;PMS7003;62176;48.450;-4.466;2022-08-19T05:39:09;4.75;4.75;3.75
73828;PMS7003;62176;48.450;-4.466;2022-08-19T05:41:45;8.75;8.75;4.25
73828;PMS7003;62176;48.450;-4.466;2022-08-19T05:44:12;7.50;4.50;3.00
73828;PMS7003;62176;48.450;-4.466;2022-08-19T05:46:38;9.00;6.75;4.50
73828;PMS7003;62176;48.450;-4.466;2022-08-19T05:49:04;6.00;5.00;4.00
73828;PMS7003;62176;48.450;-4.466;2022-08-19T05:51:30;7.75;5.50;3.75
73828;PMS7003;62176;48.450;-4.466;2022-08-19T05:53:57;8.25;6.50;4.25
73828;PMS7003;62176;48.450;-4.466;2022-08-19T05:56:22;5.25;5.25;4.50
73828;PMS7003;62176;48.450;-4.466;2022-08-19T05:58:48;6.00;4.50;2.75
73828;PMS7003;62176;48.450;-4.466;2022-08-19T06:01:14;8.00;5.25;3.25
73828;PMS7003;62176;48.450;-4.466;2022-08-19T06:03:43;7.00;4.00;3.00
73828;PMS7003;62176;48.450;-4.466;2022-08-19T06:06:10;3.75;3.75;3.00
73828;PMS7003;62176;48.450;-4.466;2022-08-19T06:08:37;6.50;4.00;3.00
73828;PMS7003;62176;48.450;-4.466;2022-08-19T06:11:17;3.75;3.25;2.25
73828;PMS7003;62176;48.450;-4.466;2022-08-19T06:13:45;1.00;1.00;1.00
73828;PMS7003;62176;48.450;-4.466;2022-08-19T06:16:15;3.50;2.50;2.00
73828;PMS7003;62176;48.450;-4.466;2022-08-19T06:18:48;4.00;3.00;2.00
73828;PMS7003;62176;48.450;-4.466;2022-08-19T06:21:18;1.50;1.50;1.00
73828;PMS7003;62176;48.450;-4.466;2022-08-19T06:23:47;2.00;2.00;2.00
73828;PMS7003;62176;48.450;-4.466;2022-08-19T06:26:14;2.75;1.00;1.00
73828;PMS7003;62176;48.450;-4.466;2022-08-19T06:28:40;0.75;0.75;0.50
73828;PMS7003;62176;48.450;-4.466;2022-08-19T06:31:08;1.00;1.00;1.00
73828;PMS7003;62176;48.450;-4.466;2022-08-19T06:33:34;1.50;1.50;1.00
73828;PMS7003;62176;48.450;-4.466;2022-08-19T06:36:00;2.00;2.00;0.50
73828;PMS7003;62176;48.450;-4.466;2022-08-19T06:38:26;3.25;0.75;0.75
73828;PMS7003;62176;48.450;-4.466;2022-08-19T06:40:59;1.00;1.00;1.00
73828;PMS7003;62176;48.450;-4.466;2022-08-19T06:43:26;0.50;0.50;0.50
73828;PMS7003;62176;48.450;-4.466;2022-08-19T06:45:51;1.50;0.00;0.00
73828;PMS7003;62176;48.450;-4.466;2022-08-19T06:48:16;1.75;1.00;1.00
73828;PMS7003;62176;48.450;-4.466;2022-08-19T06:50:42;0.00;0.00;0.00
73828;PMS7003;62176;48.450;-4.466;2022-08-19T06:53:08;1.00;1.00;0.00
73828;PMS7003;62176;48.450;-4.466;2022-08-19T06:55:33;1.00;0.50;0.25
73828;PMS7003;62176;48.450;-4.466;2022-08-19T06:58:01;1.00;0.00;0.00
73828;PMS7003;62176;48.450;-4.466;2022-08-19T07:00:28;0.75;0.75;0.75
73828;PMS7003;62176;48.450;-4.466;2022-08-19T07:02:53;1.75;0.00;0.00
73828;PMS7003;62176;48.450;-4.466;2022-08-19T07:05:19;0.00;0.00;0.00
73828;PMS7003;62176;48.450;-4.466;2022-08-19T07:07:44;0.50;0.00;0.00
73828;PMS7003;62176;48.450;-4.466;2022-08-19T07:10:10;1.00;0.00;0.00
73828;PMS7003;62176;48.450;-4.466;2022-08-19T07:12:35;0.00;0.00;0.00
73828;PMS7003;62176;48.450;-4.466;2022-08-19T07:15:01;0.00;0.00;0.00
73828;PMS7003;62176;48.450;-4.466;2022-08-19T07:17:28;1.00;0.00;0.00
73828;PMS7003;62176;48.450;-4.466;2022-08-19T07:19:54;0.00;0.00;0.00
73828;PMS7003;62176;48.450;-4.466;2022-08-19T07:22:20;0.00;0.00;0.00
73828;PMS7003;62176;48.450;-4.466;2022-08-19T07:24:49;0.00;0.00;0.00
73828;PMS7003;62176;48.450;-4.466;2022-08-19T07:27:14;0.25;0.25;0.25
73828;PMS7003;62176;48.450;-4.466;2022-08-19T07:29:40;0.00;0.00;0.00
73828;PMS7003;62176;48.450;-4.466;2022-08-19T07:32:06;0.50;0.25;0.00
73828;PMS7003;62176;48.450;-4.466;2022-08-19T07:34:32;0.25;0.25;0.00
73828;PMS7003;62176;48.450;-4.466;2022-08-19T07:37:02;1.25;0.00;0.00
73828;PMS7003;62176;48.450;-4.466;2022-08-19T07:39:30;0.00;0.00;0.00
73828;PMS7003;62176;48.450;-4.466;2022-08-19T07:41:57;0.00;0.00;0.00
73828;PMS7003;62176;48.450;-4.466;2022-08-19T07:44:25;0.00;0.00;0.00
73828;PMS7003;62176;48.450;-4.466;2022-08-19T07:46:52;0.00;0.00;0.00
73828;PMS7003;62176;48.450;-4.466;2022-08-19T07:49:20;0.00;0.00;0.00
73828;PMS7003;62176;48.450;-4.466;2022-08-19T07:51:53;0.00;0.00;0.00
73828;PMS7003;62176;48.450;-4.466;2022-08-19T07:54:26;1.00;0.00;0.00
73828;PMS7003;62176;48.450;-4.466;2022-08-19T07:56:53;0.00;0.00;0.00
73828;PMS7003;62176;48.450;-4.466;2022-08-19T07:59:19;0.00;0.00;0.00
73828;PMS7003;62176;48.450;-4.466;2022-08-19T08:01:46;0.00;0.00;0.00
73828;PMS7003;62176;48.450;-4.466;2022-08-19T08:04:12;1.00;1.00;1.00
73828;PMS7003;62176;48.450;-4.466;2022-08-19T08:06:57;0.00;0.00;0.00
73828;PMS7003;62176;48.450;-4.466;2022-08-19T08:09:42;1.00;0.50;0.50
73828;PMS7003;62176;48.450;-4.466;2022-08-19T08:12:13;1.50;0.00;0.00
73828;PMS7003;62176;48.450;-4.466;2022-08-19T08:14:43;3.00;3.00;2.00
73828;PMS7003;62176;48.450;-4.466;2022-08-19T08:17:14;0.75;0.75;0.50
73828;PMS7003;62176;48.450;-4.466;2022-08-19T08:19:42;1.00;1.00;1.00
73828;PMS7003;62176;48.450;-4.466;2022-08-19T08:22:09;2.00;2.00;1.75
73828;PMS7003;62176;48.450;-4.466;2022-08-19T08:24:55;2.00;2.00;2.00
73828;PMS7003;62176;48.450;-4.466;2022-08-19T08:27:23;1.00;1.00;1.00
73828;PMS7003;62176;48.450;-4.466;2022-08-19T08:29:49;1.00;1.00;1.00
73828;PMS7003;62176;48.450;-4.466;2022-08-19T08:32:14;2.00;2.00;2.00
73828;PMS7003;62176;48.450;-4.466;2022-08-19T08:34:40;1.00;1.00;0.00
73828;PMS7003;62176;48.450;-4.466;2022-08-19T08:37:05;1.50;1.50;1.00
73828;PMS7003;62176;48.450;-4.466;2022-08-19T08:39:31;1.00;1.00;1.00
73828;PMS7003;62176;48.450;-4.466;2022-08-19T08:41:59;2.00;2.00;1.50
73828;PMS7003;62176;48.450;-4.466;2022-08-19T08:47:02;1.75;1.75;1.00
73828;PMS7003;62176;48.450;-4.466;2022-08-19T08:52:15;2.00;2.00;1.00
73828;PMS7003;62176;48.450;-4.466;2022-08-19T08:54:47;1.00;1.00;1.00
73828;PMS7003;62176;48.450;-4.466;2022-08-19T08:57:17;1.00;1.00;1.00
73828;PMS7003;62176;48.450;-4.466;2022-08-19T08:59:48;2.00;2.00;2.00
73828;PMS7003;62176;48.450;-4.466;2022-08-19T09:02:17;1.75;1.75;1.25
73828;PMS7003;62176;48.450;-4.466;2022-08-19T09:04:43;2.00;2.00;1.25
73828;PMS7003;62176;48.450;-4.466;2022-08-19T09:09:39;2.00;2.00;1.00
73828;PMS7003;62176;48.450;-4.466;2022-08-19T09:14:55;1.50;1.50;1.00
73828;PMS7003;62176;48.450;-4.466;2022-08-19T09:17:26;3.00;1.25;1.00
73828;PMS7003;62176;48.450;-4.466;2022-08-19T09:20:03;1.00;1.00;1.00
73828;PMS7003;62176;48.450;-4.466;2022-08-19T09:22:32;1.00;1.00;1.00
73828;PMS7003;62176;48.450;-4.466;2022-08-19T09:24:59;1.00;1.00;1.00
73828;PMS7003;62176;48.450;-4.466;2022-08-19T09:27:25;0.00;0.00;0.00
73828;PMS7003;62176;48.450;-4.466;2022-08-19T09:29:52;0.75;0.75;0.00
73828;PMS7003;62176;48.450;-4.466;2022-08-19T09:32:19;0.25;0.25;0.25
73828;PMS7003;62176;48.450;-4.466;2022-08-19T09:34:45;2.00;1.00;1.00
73828;PMS7003;62176;48.450;-4.466;2022-08-19T09:37:12;0.00;0.00;0.00
73828;PMS7003;62176;48.450;-4.466;2022-08-19T09:39:39;0.00;0.00;0.00
73828;PMS7003;62176;48.450;-4.466;2022-08-19T09:42:08;3.00;3.00;2.50
73828;PMS7003;62176;48.450;-4.466;2022-08-19T09:44:39;1.00;1.00;1.00
73828;PMS7003;62176;48.450;-4.466;2022-08-19T09:47:05;1.00;1.00;1.00
73828;PMS7003;62176;48.450;-4.466;2022-08-19T09:49:30;1.00;1.00;0.00
73828;PMS7003;62176;48.450;-4.466;2022-08-19T09:51:56;2.75;2.25;2.00
73828;PMS7003;62176;48.450;-4.466;2022-08-19T09:54:22;3.00;3.00;2.25
73828;PMS7003;62176;48.450;-4.466;2022-08-19T09:56:48;3.00;3.00;2.00
73828;PMS7003;62176;48.450;-4.466;2022-08-19T09:59:14;3.00;1.50;1.25
73828;PMS7003;62176;48.450;-4.466;2022-08-19T10:01:40;3.00;3.00;2.00
73828;PMS7003;62176;48.450;-4.466;2022-08-19T10:04:05;3.75;1.75;1.50
73828;PMS7003;62176;48.450;-4.466;2022-08-19T10:06:34;2.00;2.00;1.50
73828;PMS7003;62176;48.450;-4.466;2022-08-19T10:09:03;2.00;1.00;1.00
73828;PMS7003;62176;48.450;-4.466;2022-08-19T10:11:31;2.50;2.50;2.00
73828;PMS7003;62176;48.450;-4.466;2022-08-19T10:13:57;3.00;2.00;1.00
73828;PMS7003;62176;48.450;-4.466;2022-08-19T10:16:23;2.00;2.00;1.00
73828;PMS7003;62176;48.450;-4.466;2022-08-19T10:18:50;2.00;2.00;1.25
73828;PMS7003;62176;48.450;-4.466;2022-08-19T10:21:20;2.25;2.25;2.00
73828;PMS7003;62176;48.450;-4.466;2022-08-19T10:23:48;1.25;1.25;1.00
73828;PMS7003;62176;48.450;-4.466;2022-08-19T10:26:17;2.00;1.50;1.00
73828;PMS7003;62176;48.450;-4.466;2022-08-19T10:28:46;6.00;3.00;1.75
73828;PMS7003;62176;48.450;-4.466;2022-08-19T10:31:33;3.00;1.25;1.00
73828;PMS7003;62176;48.450;-4.466;2022-08-19T10:33:58;3.00;2.25;2.25
73828;PMS7003;62176;48.450;-4.466;2022-08-19T10:36:26;2.00;2.00;1.00
73828;PMS7003;62176;48.450;-4.466;2022-08-19T10:38:58;2.00;2.00;1.75
73828;PMS7003;62176;48.450;-4.466;2022-08-19T10:41:28;2.00;1.75;1.00
73828;PMS7003;62176;48.450;-4.466;2022-08-19T10:43:56;2.25;2.25;2.00
73828;PMS7003;62176;48.450;-4.466;2022-08-19T10:46:25;3.75;3.00;2.00
73828;PMS7003;62176;48.450;-4.466;2022-08-19T10:48:52;2.75;2.00;1.00
73828;PMS7003;62176;48.450;-4.466;2022-08-19T10:51:19;3.75;2.00;2.00
73828;PMS7003;62176;48.450;-4.466;2022-08-19T10:54:05;3.00;3.00;2.50
73828;PMS7003;62176;48.450;-4.466;2022-08-19T10:56:31;5.00;4.00;3.00
73828;PMS7003;62176;48.450;-4.466;2022-08-19T10:59:16;4.50;3.00;2.75
73828;PMS7003;62176;48.450;-4.466;2022-08-19T11:01:46;6.00;4.25;2.50
73828;PMS7003;62176;48.450;-4.466;2022-08-19T11:04:13;6.00;2.25;1.75
73828;PMS7003;62176;48.450;-4.466;2022-08-19T11:06:42;3.25;2.75;2.00
73828;PMS7003;62176;48.450;-4.466;2022-08-19T11:09:13;4.50;3.00;2.00
73828;PMS7003;62176;48.450;-4.466;2022-08-19T11:11:40;5.00;2.00;2.00
73828;PMS7003;62176;48.450;-4.466;2022-08-19T11:14:07;6.75;4.00;2.00
73828;PMS7003;62176;48.450;-4.466;2022-08-19T11:16:34;3.25;2.50;2.00
73828;PMS7003;62176;48.450;-4.466;2022-08-19T11:19:00;3.25;1.00;1.00
73828;PMS7003;62176;48.450;-4.466;2022-08-19T11:21:28;4.50;3.00;2.00
73828;PMS7003;62176;48.450;-4.466;2022-08-19T11:23:58;3.75;3.75;2.25
73828;PMS7003;62176;48.450;-4.466;2022-08-19T11:26:29;2.00;1.50;1.25
73828;PMS7003;62176;48.450;-4.466;2022-08-19T11:28:56;1.50;1.25;0.50
73828;PMS7003;62176;48.450;-4.466;2022-08-19T11:31:24;5.25;1.75;1.50
73828;PMS7003;62176;48.450;-4.466;2022-08-19T11:33:59;3.00;2.00;2.00
73828;PMS7003;62176;48.450;-4.466;2022-08-19T11:36:26;3.00;1.75;0.75
73828;PMS7003;62176;48.450;-4.466;2022-08-19T11:38:52;2.50;1.75;1.75
73828;PMS7003;62176;48.450;-4.466;2022-08-19T11:41:19;2.00;2.00;1.25
73828;PMS7003;62176;48.450;-4.466;2022-08-19T11:43:45;2.75;1.75;1.00
73828;PMS7003;62176;48.450;-4.466;2022-08-19T11:46:12;2.00;2.00;1.75
73828;PMS7003;62176;48.450;-4.466;2022-08-19T11:48:39;2.00;1.00;0.50
73828;PMS7003;62176;48.450;-4.466;2022-08-19T11:51:08;1.75;1.75;1.00
73828;PMS7003;62176;48.450;-4.466;2022-08-19T11:53:35;3.25;2.50;2.00
73828;PMS7003;62176;48.450;-4.466;2022-08-19T11:56:02;3.00;2.00;1.00
73828;PMS7003;62176;48.450;-4.466;2022-08-19T11:58:28;1.75;1.75;1.00
73828;PMS7003;62176;48.450;-4.466;2022-08-19T12:00:54;2.00;1.00;1.00
73828;PMS7003;62176;48.450;-4.466;2022-08-19T12:03:20;2.00;1.25;1.00
73828;PMS7003;62176;48.450;-4.466;2022-08-19T12:05:45;2.50;1.00;1.00
73828;PMS7003;62176;48.450;-4.466;2022-08-19T12:08:11;2.75;1.00;0.75
73828;PMS7003;62176;48.450;-4.466;2022-08-19T12:10:38;4.75;3.00;2.00
73828;PMS7003;62176;48.450;-4.466;2022-08-19T12:13:05;3.00;1.75;1.75
73828;PMS7003;62176;48.450;-4.466;2022-08-19T12:15:35;3.25;1.50;1.00
73828;PMS7003;62176;48.450;-4.466;2022-08-19T12:18:02;3.00;1.00;1.00
73828;PMS7003;62176;48.450;-4.466;2022-08-19T12:20:28;2.75;2.75;2.00
73828;PMS7003;62176;48.450;-4.466;2022-08-19T12:22:53;1.25;1.25;1.00
73828;PMS7003;62176;48.450;-4.466;2022-08-19T12:25:19;2.00;2.00;2.00
73828;PMS7003;62176;48.450;-4.466;2022-08-19T12:27:45;1.00;1.00;1.00
73828;PMS7003;62176;48.450;-4.466;2022-08-19T12:30:12;3.25;2.00;1.25
73828;PMS7003;62176;48.450;-4.466;2022-08-19T12:32:38;2.50;1.00;1.00
73828;PMS7003;62176;48.450;-4.466;2022-08-19T12:35:04;2.00;1.00;1.00
73828;PMS7003;62176;48.450;-4.466;2022-08-19T12:37:30;1.00;1.00;1.00
73828;PMS7003;62176;48.450;-4.466;2022-08-19T12:39:57;1.75;1.25;1.25
73828;PMS7003;62176;48.450;-4.466;2022-08-19T12:42:22;0.25;0.25;0.00
73828;PMS7003;62176;48.450;-4.466;2022-08-19T12:44:48;2.00;1.75;1.00
73828;PMS7003;62176;48.450;-4.466;2022-08-19T12:47:13;1.50;1.50;1.00
73828;PMS7003;62176;48.450;-4.466;2022-08-19T12:49:39;3.25;2.00;2.00
73828;PMS7003;62176;48.450;-4.466;2022-08-19T12:52:06;1.25;1.00;1.00
73828;PMS7003;62176;48.450;-4.466;2022-08-19T12:54:34;2.75;1.00;1.00
73828;PMS7003;62176;48.450;-4.466;2022-08-19T12:57:00;1.75;1.00;0.25
73828;PMS7003;62176;48.450;-4.466;2022-08-19T12:59:30;1.00;1.00;0.25
73828;PMS7003;62176;48.450;-4.466;2022-08-19T13:01:55;1.00;1.00;1.00
73828;PMS7003;62176;48.450;-4.466;2022-08-19T13:04:20;2.50;2.50;1.50
73828;PMS7003;62176;48.450;-4.466;2022-08-19T13:06:46;1.00;1.00;0.25
73828;PMS7003;62176;48.450;-4.466;2022-08-19T13:09:11;1.75;1.75;1.00
73828;PMS7003;62176;48.450;-4.466;2022-08-19T13:11:37;3.25;1.00;1.00
73828;PMS7003;62176;48.450;-4.466;2022-08-19T13:14:03;2.25;1.00;1.00
73828;PMS7003;62176;48.450;-4.466;2022-08-19T13:16:29;1.25;0.75;0.50
73828;PMS7003;62176;48.450;-4.466;2022-08-19T13:18:55;4.00;1.00;1.00
73828;PMS7003;62176;48.450;-4.466;2022-08-19T13:21:22;3.00;1.00;1.00
73828;PMS7003;62176;48.450;-4.466;2022-08-19T13:23:50;1.00;1.00;1.00
73828;PMS7003;62176;48.450;-4.466;2022-08-19T13:26:16;1.00;1.00;1.00
73828;PMS7003;62176;48.450;-4.466;2022-08-19T13:28:42;2.00;1.00;1.00
73828;PMS7003;62176;48.450;-4.466;2022-08-19T13:31:28;1.00;1.00;0.75
73828;PMS7003;62176;48.450;-4.466;2022-08-19T13:34:16;4.50;0.75;0.00
73828;PMS7003;62176;48.450;-4.466;2022-08-19T13:36:44;2.25;1.00;1.00
73828;PMS7003;62176;48.450;-4.466;2022-08-19T13:39:09;0.00;0.00;0.00
73828;PMS7003;62176;48.450;-4.466;2022-08-19T13:41:36;1.75;1.00;0.50
73828;PMS7003;62176;48.450;-4.466;2022-08-19T13:44:02;2.25;0.25;0.25
73828;PMS7003;62176;48.450;-4.466;2022-08-19T13:46:29;0.00;0.00;0.00
73828;PMS7003;62176;48.450;-4.466;2022-08-19T13:48:55;2.00;1.00;1.00
73828;PMS7003;62176;48.450;-4.466;2022-08-19T13:51:21;0.00;0.00;0.00
73828;PMS7003;62176;48.450;-4.466;2022-08-19T13:53:47;0.00;0.00;0.00
73828;PMS7003;62176;48.450;-4.466;2022-08-19T13:56:14;0.75;0.75;0.25
73828;PMS7003;62176;48.450;-4.466;2022-08-19T13:58:41;1.00;1.00;0.25
73828;PMS7003;62176;48.450;-4.466;2022-08-19T14:01:07;1.00;0.00;0.00
73828;PMS7003;62176;48.450;-4.466;2022-08-19T14:03:33;1.00;1.00;0.00
73828;PMS7003;62176;48.450;-4.466;2022-08-19T14:06:00;2.25;1.00;1.00
73828;PMS7003;62176;48.450;-4.466;2022-08-19T14:08:27;1.00;0.00;0.00
73828;PMS7003;62176;48.450;-4.466;2022-08-19T14:10:56;5.25;1.25;1.00
73828;PMS7003;62176;48.450;-4.466;2022-08-19T14:13:22;3.50;0.50;0.00
73828;PMS7003;62176;48.450;-4.466;2022-08-19T14:15:48;1.00;1.00;0.00
73828;PMS7003;62176;48.450;-4.466;2022-08-19T14:18:14;1.50;1.50;1.00
73828;PMS7003;62176;48.450;-4.466;2022-08-19T14:20:41;2.00;2.00;1.00
73828;PMS7003;62176;48.450;-4.466;2022-08-19T14:23:07;2.00;1.00;0.00